sensor_id;sensor_type;location;lat;lon;timestamp;P1;durP1;ratioP1;P2;durP2;ratioP2
19329;SDS011;9799;48.214;16.388;2022-11-11T00:00:04;15.67;;;10.03;;
19329;SDS011;9799;48.214;16.388;2022-11-11T00:03:26;13.30;;;10.57;;
19329;SDS011;9799;48.214;16.388;2022-11-11T00:06:47;14.03;;;10.10;;
19329;SDS011;9799;48.214;16.388;2022-11-11T00:10:09;16.20;;;11.57;;
19329;SDS011;9799;48.214;16.388;2022-11-11T00:13:32;16.93;;;10.40;;
19329;SDS011;9799;48.214;16.388;2022-11-11T00:16:54;15.20;;;11.03;;
19329;SDS011;9799;48.214;16.388;2022-11-11T00:20:32;12.77;;;10.07;;
19329;SDS011;9799;48.214;16.388;2022-11-11T00:24:18;14.67;;;10.80;;
19329;SDS011;9799;48.214;16.388;2022-11-11T00:27:58;14.93;;;11.00;;
19329;SDS011;9799;48.214;16.388;2022-11-11T00:31:21;15.03;;;11.00;;
19329;SDS011;9799;48.214;16.388;2022-11-11T00:34:42;14.23;;;11.20;;
19329;SDS011;9799;48.214;16.388;2022-11-11T00:38:23;15.33;;;10.70;;
19329;SDS011;9799;48.214;16.388;2022-11-11T00:42:02;11.13;;;9.93;;
19329;SDS011;9799;48.214;16.388;2022-11-11T00:45:23;11.93;;;10.57;;
19329;SDS011;9799;48.214;16.388;2022-11-11T00:48:46;12.93;;;9.97;;
19329;SDS011;9799;48.214;16.388;2022-11-11T00:52:25;15.83;;;11.63;;
19329;SDS011;9799;48.214;16.388;2022-11-11T00:55:46;18.07;;;10.63;;
19329;SDS011;9799;48.214;16.388;2022-11-11T00:59:08;13.20;;;10.30;;
19329;SDS011;9799;48.214;16.388;2022-11-11T01:02:29;14.67;;;10.63;;
19329;SDS011;9799;48.214;16.388;2022-11-11T01:05:51;15.43;;;9.97;;
19329;SDS011;9799;48.214;16.388;2022-11-11T01:09:13;16.00;;;11.60;;
19329;SDS011;9799;48.214;16.388;2022-11-11T01:12:34;13.07;;;9.97;;
19329;SDS011;9799;48.214;16.388;2022-11-11T01:15:57;16.33;;;10.90;;
19329;SDS011;9799;48.214;16.388;2022-11-11T01:19:20;13.53;;;10.83;;
19329;SDS011;9799;48.214;16.388;2022-11-11T01:22:42;14.07;;;11.03;;
19329;SDS011;9799;48.214;16.388;2022-11-11T01:26:04;15.87;;;11.40;;
19329;SDS011;9799;48.214;16.388;2022-11-11T01:29:27;16.43;;;11.47;;
19329;SDS011;9799;48.214;16.388;2022-11-11T01:32:48;14.07;;;10.53;;
19329;SDS011;9799;48.214;16.388;2022-11-11T01:36:10;18.80;;;12.27;;
19329;SDS011;9799;48.214;16.388;2022-11-11T01:39:34;13.10;;;10.50;;
19329;SDS011;9799;48.214;16.388;2022-11-11T01:43:13;15.37;;;11.40;;
19329;SDS011;9799;48.214;16.388;2022-11-11T01:46:38;12.17;;;10.77;;
19329;SDS011;9799;48.214;16.388;2022-11-11T01:50:03;15.80;;;12.27;;
19329;SDS011;9799;48.214;16.388;2022-11-11T01:53:23;17.07;;;12.43;;
19329;SDS011;9799;48.214;16.388;2022-11-11T01:56:48;18.57;;;12.23;;
19329;SDS011;9799;48.214;16.388;2022-11-11T02:00:14;14.40;;;12.20;;
19329;SDS011;9799;48.214;16.388;2022-11-11T02:03:38;14.67;;;11.97;;
19329;SDS011;9799;48.214;16.388;2022-11-11T02:07:20;13.80;;;11.83;;
19329;SDS011;9799;48.214;16.388;2022-11-11T02:10:43;16.67;;;11.97;;
19329;SDS011;9799;48.214;16.388;2022-11-11T02:14:07;15.60;;;11.10;;
19329;SDS011;9799;48.214;16.388;2022-11-11T02:17:54;20.13;;;11.87;;
19329;SDS011;9799;48.214;16.388;2022-11-11T02:21:16;12.80;;;10.90;;
19329;SDS011;9799;48.214;16.388;2022-11-11T02:24:42;13.90;;;10.70;;
19329;SDS011;9799;48.214;16.388;2022-11-11T02:28:04;15.47;;;11.63;;
19329;SDS011;9799;48.214;16.388;2022-11-11T02:31:27;12.50;;;10.57;;
19329;SDS011;9799;48.214;16.388;2022-11-11T02:34:49;12.80;;;10.10;;
19329;SDS011;9799;48.214;16.388;2022-11-11T02:38:10;17.73;;;11.97;;
19329;SDS011;9799;48.214;16.388;2022-11-11T02:41:33;12.90;;;11.17;;
19329;SDS011;9799;48.214;16.388;2022-11-11T02:45:12;16.87;;;11.60;;
19329;SDS011;9799;48.214;16.388;2022-11-11T02:48:33;16.73;;;12.60;;
19329;SDS011;9799;48.214;16.388;2022-11-11T02:51:55;15.60;;;11.37;;
19329;SDS011;9799;48.214;16.388;2022-11-11T02:55:16;14.73;;;11.73;;
19329;SDS011;9799;48.214;16.388;2022-11-11T02:58:38;14.30;;;12.07;;
19329;SDS011;9799;48.214;16.388;2022-11-11T03:01:59;15.40;;;11.97;;
19329;SDS011;9799;48.214;16.388;2022-11-11T03:05:21;15.80;;;11.97;;
19329;SDS011;9799;48.214;16.388;2022-11-11T03:08:42;12.87;;;11.47;;
19329;SDS011;9799;48.214;16.388;2022-11-11T03:12:04;16.50;;;12.03;;
19329;SDS011;9799;48.214;16.388;2022-11-11T03:15:26;13.00;;;10.73;;
19329;SDS011;9799;48.214;16.388;2022-11-11T03:18:47;13.30;;;11.80;;
19329;SDS011;9799;48.214;16.388;2022-11-11T03:22:07;12.80;;;11.20;;
19329;SDS011;9799;48.214;16.388;2022-11-11T03:25:29;17.27;;;12.10;;
19329;SDS011;9799;48.214;16.388;2022-11-11T03:28:59;15.07;;;12.63;;
19329;SDS011;9799;48.214;16.388;2022-11-11T03:32:22;16.10;;;12.40;;
19329;SDS011;9799;48.214;16.388;2022-11-11T03:35:43;14.23;;;12.63;;
19329;SDS011;9799;48.214;16.388;2022-11-11T03:39:06;16.57;;;12.20;;
19329;SDS011;9799;48.214;16.388;2022-11-11T03:42:26;15.40;;;12.33;;
19329;SDS011;9799;48.214;16.388;2022-11-11T03:45:47;17.03;;;11.90;;
19329;SDS011;9799;48.214;16.388;2022-11-11T03:49:10;16.13;;;12.07;;
19329;SDS011;9799;48.214;16.388;2022-11-11T03:52:31;15.30;;;12.47;;
19329;SDS011;9799;48.214;16.388;2022-11-11T03:55:52;18.67;;;12.87;;
19329;SDS011;9799;48.214;16.388;2022-11-11T03:59:15;15.53;;;12.80;;
19329;SDS011;9799;48.214;16.388;2022-11-11T04:02:36;16.57;;;13.03;;
19329;SDS011;9799;48.214;16.388;2022-11-11T04:06:16;14.90;;;12.53;;
19329;SDS011;9799;48.214;16.388;2022-11-11T04:09:55;13.63;;;11.83;;
19329;SDS011;9799;48.214;16.388;2022-11-11T04:13:34;19.70;;;12.60;;
19329;SDS011;9799;48.214;16.388;2022-11-11T04:17:12;16.90;;;12.97;;
19329;SDS011;9799;48.214;16.388;2022-11-11T04:20:34;18.63;;;13.73;;
19329;SDS011;9799;48.214;16.388;2022-11-11T04:24:15;20.50;;;14.07;;
19329;SDS011;9799;48.214;16.388;2022-11-11T04:27:55;18.60;;;13.27;;
19329;SDS011;9799;48.214;16.388;2022-11-11T04:31:30;16.60;;;12.93;;
19329;SDS011;9799;48.214;16.388;2022-11-11T04:34:52;20.57;;;14.00;;
19329;SDS011;9799;48.214;16.388;2022-11-11T04:38:13;16.50;;;12.67;;
19329;SDS011;9799;48.214;16.388;2022-11-11T04:41:54;17.37;;;13.27;;
19329;SDS011;9799;48.214;16.388;2022-11-11T04:45:15;15.23;;;12.20;;
19329;SDS011;9799;48.214;16.388;2022-11-11T04:48:49;18.30;;;14.60;;
19329;SDS011;9799;48.214;16.388;2022-11-11T04:52:10;17.47;;;13.90;;
19329;SDS011;9799;48.214;16.388;2022-11-11T04:55:54;19.17;;;13.50;;
19329;SDS011;9799;48.214;16.388;2022-11-11T04:59:34;17.27;;;13.10;;
19329;SDS011;9799;48.214;16.388;2022-11-11T05:02:55;14.37;;;12.13;;
19329;SDS011;9799;48.214;16.388;2022-11-11T05:06:35;14.53;;;11.97;;
19329;SDS011;9799;48.214;16.388;2022-11-11T05:10:14;17.73;;;12.80;;
19329;SDS011;9799;48.214;16.388;2022-11-11T05:13:35;15.83;;;12.87;;
19329;SDS011;9799;48.214;16.388;2022-11-11T05:17:15;17.73;;;13.20;;
19329;SDS011;9799;48.214;16.388;2022-11-11T05:20:54;20.20;;;13.83;;
19329;SDS011;9799;48.214;16.388;2022-11-11T05:24:32;21.60;;;13.80;;
19329;SDS011;9799;48.214;16.388;2022-11-11T05:28:11;15.10;;;12.27;;
19329;SDS011;9799;48.214;16.388;2022-11-11T05:31:32;16.57;;;12.30;;
19329;SDS011;9799;48.214;16.388;2022-11-11T05:34:58;13.97;;;11.30;;
19329;SDS011;9799;48.214;16.388;2022-11-11T05:38:19;15.33;;;11.97;;
19329;SDS011;9799;48.214;16.388;2022-11-11T05:41:40;12.47;;;10.50;;
19329;SDS011;9799;48.214;16.388;2022-11-11T05:45:01;17.80;;;12.30;;
19329;SDS011;9799;48.214;16.388;2022-11-11T05:48:22;17.73;;;12.57;;
19329;SDS011;9799;48.214;16.388;2022-11-11T05:51:45;15.13;;;12.27;;
19329;SDS011;9799;48.214;16.388;2022-11-11T05:55:07;19.20;;;12.80;;
19329;SDS011;9799;48.214;16.388;2022-11-11T05:58:28;18.23;;;12.53;;
19329;SDS011;9799;48.214;16.388;2022-11-11T06:01:49;16.97;;;13.43;;
19329;SDS011;9799;48.214;16.388;2022-11-11T06:05:10;16.33;;;11.70;;
19329;SDS011;9799;48.214;16.388;2022-11-11T06:08:33;17.07;;;13.07;;
19329;SDS011;9799;48.214;16.388;2022-11-11T06:11:54;18.40;;;13.53;;
19329;SDS011;9799;48.214;16.388;2022-11-11T06:15:15;17.67;;;12.33;;
19329;SDS011;9799;48.214;16.388;2022-11-11T06:18:36;16.43;;;12.37;;
19329;SDS011;9799;48.214;16.388;2022-11-11T06:21:57;15.57;;;13.17;;
19329;SDS011;9799;48.214;16.388;2022-11-11T06:25:21;18.40;;;13.53;;
19329;SDS011;9799;48.214;16.388;2022-11-11T06:29:00;15.27;;;12.33;;
19329;SDS011;9799;48.214;16.388;2022-11-11T06:32:22;14.37;;;12.43;;
19329;SDS011;9799;48.214;16.388;2022-11-11T06:35:44;22.90;;;16.40;;
19329;SDS011;9799;48.214;16.388;2022-11-11T06:39:05;18.73;;;16.13;;
19329;SDS011;9799;48.214;16.388;2022-11-11T06:42:27;18.00;;;14.10;;
19329;SDS011;9799;48.214;16.388;2022-11-11T06:45:49;15.87;;;12.67;;
19329;SDS011;9799;48.214;16.388;2022-11-11T06:49:10;72.03;;;46.37;;
19329;SDS011;9799;48.214;16.388;2022-11-11T06:52:31;26.47;;;17.47;;
19329;SDS011;9799;48.214;16.388;2022-11-11T06:55:53;16.27;;;12.93;;
19329;SDS011;9799;48.214;16.388;2022-11-11T06:59:15;19.43;;;12.13;;
19329;SDS011;9799;48.214;16.388;2022-11-11T07:02:37;19.90;;;14.70;;
19329;SDS011;9799;48.214;16.388;2022-11-11T07:05:59;16.70;;;12.77;;
19329;SDS011;9799;48.214;16.388;2022-11-11T07:09:20;22.07;;;12.57;;
19329;SDS011;9799;48.214;16.388;2022-11-11T07:12:44;18.97;;;13.73;;
19329;SDS011;9799;48.214;16.388;2022-11-11T07:16:07;19.93;;;13.87;;
19329;SDS011;9799;48.214;16.388;2022-11-11T07:19:30;15.77;;;12.90;;
19329;SDS011;9799;48.214;16.388;2022-11-11T07:22:51;16.53;;;13.03;;
19329;SDS011;9799;48.214;16.388;2022-11-11T07:26:12;15.63;;;12.67;;
19329;SDS011;9799;48.214;16.388;2022-11-11T07:29:33;18.43;;;12.47;;
19329;SDS011;9799;48.214;16.388;2022-11-11T07:32:56;16.13;;;13.13;;
19329;SDS011;9799;48.214;16.388;2022-11-11T07:36:17;16.67;;;13.93;;
19329;SDS011;9799;48.214;16.388;2022-11-11T07:39:38;16.70;;;13.03;;
19329;SDS011;9799;48.214;16.388;2022-11-11T07:42:59;15.17;;;13.27;;
19329;SDS011;9799;48.214;16.388;2022-11-11T07:46:20;17.43;;;13.43;;
19329;SDS011;9799;48.214;16.388;2022-11-11T07:49:43;15.23;;;12.47;;
19329;SDS011;9799;48.214;16.388;2022-11-11T07:53:04;16.90;;;12.83;;
19329;SDS011;9799;48.214;16.388;2022-11-11T07:56:25;15.03;;;12.20;;
19329;SDS011;9799;48.214;16.388;2022-11-11T07:59:46;17.17;;;13.87;;
19329;SDS011;9799;48.214;16.388;2022-11-11T08:03:08;17.17;;;13.03;;
19329;SDS011;9799;48.214;16.388;2022-11-11T08:06:30;17.40;;;13.83;;
19329;SDS011;9799;48.214;16.388;2022-11-11T08:09:51;21.43;;;14.07;;
19329;SDS011;9799;48.214;16.388;2022-11-11T08:13:12;17.10;;;14.00;;
19329;SDS011;9799;48.214;16.388;2022-11-11T08:16:51;21.00;;;15.50;;
19329;SDS011;9799;48.214;16.388;2022-11-11T08:20:12;18.20;;;14.80;;
19329;SDS011;9799;48.214;16.388;2022-11-11T08:23:35;22.83;;;13.80;;
19329;SDS011;9799;48.214;16.388;2022-11-11T08:26:56;20.03;;;14.10;;
19329;SDS011;9799;48.214;16.388;2022-11-11T08:30:17;24.03;;;14.70;;
19329;SDS011;9799;48.214;16.388;2022-11-11T08:33:39;21.37;;;13.97;;
19329;SDS011;9799;48.214;16.388;2022-11-11T08:37:00;26.43;;;15.77;;
19329;SDS011;9799;48.214;16.388;2022-11-11T08:40:22;23.27;;;15.10;;
19329;SDS011;9799;48.214;16.388;2022-11-11T08:43:44;25.33;;;15.30;;
19329;SDS011;9799;48.214;16.388;2022-11-11T08:47:05;20.90;;;16.33;;
19329;SDS011;9799;48.214;16.388;2022-11-11T08:50:26;20.43;;;15.00;;
19329;SDS011;9799;48.214;16.388;2022-11-11T08:53:47;18.13;;;15.27;;
19329;SDS011;9799;48.214;16.388;2022-11-11T08:57:10;17.90;;;14.47;;
19329;SDS011;9799;48.214;16.388;2022-11-11T09:00:31;16.67;;;13.13;;
19329;SDS011;9799;48.214;16.388;2022-11-11T09:03:53;16.00;;;12.77;;
19329;SDS011;9799;48.214;16.388;2022-11-11T09:07:14;19.60;;;12.40;;
19329;SDS011;9799;48.214;16.388;2022-11-11T09:10:35;19.07;;;14.07;;
19329;SDS011;9799;48.214;16.388;2022-11-11T09:13:58;16.37;;;13.80;;
19329;SDS011;9799;48.214;16.388;2022-11-11T09:17:19;16.50;;;14.03;;
19329;SDS011;9799;48.214;16.388;2022-11-11T09:20:40;18.13;;;14.47;;
19329;SDS011;9799;48.214;16.388;2022-11-11T09:24:02;20.07;;;14.80;;
19329;SDS011;9799;48.214;16.388;2022-11-11T09:27:23;17.60;;;15.17;;
19329;SDS011;9799;48.214;16.388;2022-11-11T09:30:47;21.47;;;15.37;;
19329;SDS011;9799;48.214;16.388;2022-11-11T09:34:08;19.27;;;14.80;;
19329;SDS011;9799;48.214;16.388;2022-11-11T09:37:29;20.47;;;15.83;;
19329;SDS011;9799;48.214;16.388;2022-11-11T09:40:54;19.00;;;15.23;;
19329;SDS011;9799;48.214;16.388;2022-11-11T09:44:30;20.33;;;15.00;;
19329;SDS011;9799;48.214;16.388;2022-11-11T09:48:06;22.17;;;16.37;;
19329;SDS011;9799;48.214;16.388;2022-11-11T09:51:42;24.87;;;18.00;;
19329;SDS011;9799;48.214;16.388;2022-11-11T09:55:12;21.83;;;15.87;;
19329;SDS011;9799;48.214;16.388;2022-11-11T09:58:38;24.73;;;17.97;;
19329;SDS011;9799;48.214;16.388;2022-11-11T10:02:03;26.87;;;17.53;;
19329;SDS011;9799;48.214;16.388;2022-11-11T10:05:37;28.10;;;18.33;;
19329;SDS011;9799;48.214;16.388;2022-11-11T10:09:05;25.13;;;17.77;;
19329;SDS011;9799;48.214;16.388;2022-11-11T10:12:33;24.47;;;15.47;;
19329;SDS011;9799;48.214;16.388;2022-11-11T10:16:01;25.50;;;17.33;;
19329;SDS011;9799;48.214;16.388;2022-11-11T10:19:28;25.80;;;19.83;;
19329;SDS011;9799;48.214;16.388;2022-11-11T10:22:52;21.83;;;17.00;;
19329;SDS011;9799;48.214;16.388;2022-11-11T10:26:23;25.10;;;19.57;;
19329;SDS011;9799;48.214;16.388;2022-11-11T10:29:49;26.43;;;19.23;;
19329;SDS011;9799;48.214;16.388;2022-11-11T10:33:11;29.13;;;22.07;;
19329;SDS011;9799;48.214;16.388;2022-11-11T10:36:41;26.20;;;18.63;;
19329;SDS011;9799;48.214;16.388;2022-11-11T10:40:09;24.47;;;17.53;;
19329;SDS011;9799;48.214;16.388;2022-11-11T10:43:36;23.63;;;18.20;;
19329;SDS011;9799;48.214;16.388;2022-11-11T10:47:00;21.23;;;17.17;;
19329;SDS011;9799;48.214;16.388;2022-11-11T10:50:25;26.37;;;18.33;;
19329;SDS011;9799;48.214;16.388;2022-11-11T10:53:55;25.20;;;18.03;;
19329;SDS011;9799;48.214;16.388;2022-11-11T10:57:23;22.03;;;18.77;;
19329;SDS011;9799;48.214;16.388;2022-11-11T11:00:48;34.00;;;19.30;;
19329;SDS011;9799;48.214;16.388;2022-11-11T11:04:13;27.63;;;18.90;;
19329;SDS011;9799;48.214;16.388;2022-11-11T11:07:42;24.10;;;19.27;;
19329;SDS011;9799;48.214;16.388;2022-11-11T11:11:06;23.93;;;18.40;;
19329;SDS011;9799;48.214;16.388;2022-11-11T11:14:33;32.07;;;19.77;;
19329;SDS011;9799;48.214;16.388;2022-11-11T11:17:57;21.67;;;17.37;;
19329;SDS011;9799;48.214;16.388;2022-11-11T11:21:23;24.17;;;18.33;;
19329;SDS011;9799;48.214;16.388;2022-11-11T11:24:45;22.67;;;18.97;;
19329;SDS011;9799;48.214;16.388;2022-11-11T11:28:07;22.80;;;18.73;;
19329;SDS011;9799;48.214;16.388;2022-11-11T11:31:35;23.77;;;19.33;;
19329;SDS011;9799;48.214;16.388;2022-11-11T11:34:57;27.03;;;18.27;;
19329;SDS011;9799;48.214;16.388;2022-11-11T11:38:18;26.60;;;19.10;;
19329;SDS011;9799;48.214;16.388;2022-11-11T11:41:40;29.87;;;22.13;;
19329;SDS011;9799;48.214;16.388;2022-11-11T11:45:14;27.03;;;20.87;;
19329;SDS011;9799;48.214;16.388;2022-11-11T11:48:44;24.93;;;20.57;;
19329;SDS011;9799;48.214;16.388;2022-11-11T11:52:19;29.77;;;18.97;;
19329;SDS011;9799;48.214;16.388;2022-11-11T11:55:47;26.70;;;20.17;;
19329;SDS011;9799;48.214;16.388;2022-11-11T11:59:16;26.00;;;19.20;;
19329;SDS011;9799;48.214;16.388;2022-11-11T12:02:49;28.97;;;20.97;;
19329;SDS011;9799;48.214;16.388;2022-11-11T12:06:45;22.37;;;19.60;;
19329;SDS011;9799;48.214;16.388;2022-11-11T12:10:21;24.80;;;20.57;;
19329;SDS011;9799;48.214;16.388;2022-11-11T12:13:50;30.07;;;22.57;;
19329;SDS011;9799;48.214;16.388;2022-11-11T12:17:25;25.70;;;20.00;;
19329;SDS011;9799;48.214;16.388;2022-11-11T12:20:54;28.13;;;20.97;;
19329;SDS011;9799;48.214;16.388;2022-11-11T12:24:29;24.07;;;19.93;;
19329;SDS011;9799;48.214;16.388;2022-11-11T12:27:58;26.47;;;20.83;;
19329;SDS011;9799;48.214;16.388;2022-11-11T12:31:26;28.30;;;22.30;;
19329;SDS011;9799;48.214;16.388;2022-11-11T12:35:05;53.17;;;32.73;;
19329;SDS011;9799;48.214;16.388;2022-11-11T12:38:45;26.57;;;22.63;;
19329;SDS011;9799;48.214;16.388;2022-11-11T12:42:13;29.00;;;20.47;;
19329;SDS011;9799;48.214;16.388;2022-11-11T12:45:47;25.67;;;18.87;;
19329;SDS011;9799;48.214;16.388;2022-11-11T12:49:25;23.33;;;17.73;;
19329;SDS011;9799;48.214;16.388;2022-11-11T12:53:13;26.77;;;19.00;;
19329;SDS011;9799;48.214;16.388;2022-11-11T12:56:42;26.03;;;20.50;;
19329;SDS011;9799;48.214;16.388;2022-11-11T13:00:14;21.77;;;17.83;;
19329;SDS011;9799;48.214;16.388;2022-11-11T13:03:50;24.93;;;19.13;;
19329;SDS011;9799;48.214;16.388;2022-11-11T13:11:10;23.47;;;18.87;;
19329;SDS011;9799;48.214;16.388;2022-11-11T13:14:54;26.70;;;18.07;;
19329;SDS011;9799;48.214;16.388;2022-11-11T13:18:22;24.63;;;19.30;;
19329;SDS011;9799;48.214;16.388;2022-11-11T13:21:48;26.23;;;18.63;;
19329;SDS011;9799;48.214;16.388;2022-11-11T13:25:13;26.80;;;19.53;;
19329;SDS011;9799;48.214;16.388;2022-11-11T13:28:38;29.07;;;18.47;;
19329;SDS011;9799;48.214;16.388;2022-11-11T13:32:04;27.00;;;19.60;;
19329;SDS011;9799;48.214;16.388;2022-11-11T13:35:31;23.07;;;18.17;;
19329;SDS011;9799;48.214;16.388;2022-11-11T13:38:56;27.13;;;18.00;;
19329;SDS011;9799;48.214;16.388;2022-11-11T13:42:20;24.77;;;18.40;;
19329;SDS011;9799;48.214;16.388;2022-11-11T13:45:49;26.37;;;18.90;;
19329;SDS011;9799;48.214;16.388;2022-11-11T13:49:19;27.23;;;20.27;;
19329;SDS011;9799;48.214;16.388;2022-11-11T13:52:51;22.37;;;17.67;;
19329;SDS011;9799;48.214;16.388;2022-11-11T13:56:21;26.63;;;18.83;;
19329;SDS011;9799;48.214;16.388;2022-11-11T13:59:49;22.70;;;17.03;;
19329;SDS011;9799;48.214;16.388;2022-11-11T14:11:09;31.77;;;24.10;;
19329;SDS011;9799;48.214;16.388;2022-11-11T14:14:54;27.63;;;18.53;;
19329;SDS011;9799;48.214;16.388;2022-11-11T14:18:31;23.47;;;16.37;;
19329;SDS011;9799;48.214;16.388;2022-11-11T14:21:56;23.30;;;16.43;;
19329;SDS011;9799;48.214;16.388;2022-11-11T14:25:20;21.07;;;14.27;;
19329;SDS011;9799;48.214;16.388;2022-11-11T14:28:48;19.33;;;14.47;;
19329;SDS011;9799;48.214;16.388;2022-11-11T14:36:10;22.43;;;13.57;;
19329;SDS011;9799;48.214;16.388;2022-11-11T14:39:40;21.30;;;14.50;;
19329;SDS011;9799;48.214;16.388;2022-11-11T14:50:43;15.73;;;13.20;;
19329;SDS011;9799;48.214;16.388;2022-11-11T14:54:12;25.93;;;14.23;;
19329;SDS011;9799;48.214;16.388;2022-11-11T14:57:55;20.93;;;13.60;;
19329;SDS011;9799;48.214;16.388;2022-11-11T15:01:24;18.53;;;12.80;;
19329;SDS011;9799;48.214;16.388;2022-11-11T15:04:46;24.37;;;17.13;;
19329;SDS011;9799;48.214;16.388;2022-11-11T15:08:13;24.20;;;17.80;;
19329;SDS011;9799;48.214;16.388;2022-11-11T15:11:42;17.03;;;14.80;;
19329;SDS011;9799;48.214;16.388;2022-11-11T15:15:08;21.47;;;15.03;;
19329;SDS011;9799;48.214;16.388;2022-11-11T15:22:28;17.80;;;14.80;;
19329;SDS011;9799;48.214;16.388;2022-11-11T15:26:05;24.87;;;20.07;;
19329;SDS011;9799;48.214;16.388;2022-11-11T15:29:38;30.50;;;22.73;;
19329;SDS011;9799;48.214;16.388;2022-11-11T15:33:10;23.53;;;19.03;;
19329;SDS011;9799;48.214;16.388;2022-11-11T15:36:48;28.63;;;19.83;;
19329;SDS011;9799;48.214;16.388;2022-11-11T15:40:17;33.43;;;19.73;;
19329;SDS011;9799;48.214;16.388;2022-11-11T15:43:39;25.80;;;17.43;;
19329;SDS011;9799;48.214;16.388;2022-11-11T15:47:02;25.33;;;18.53;;
19329;SDS011;9799;48.214;16.388;2022-11-11T15:50:28;25.23;;;17.33;;
19329;SDS011;9799;48.214;16.388;2022-11-11T15:53:54;36.83;;;18.80;;
19329;SDS011;9799;48.214;16.388;2022-11-11T15:57:30;27.60;;;18.60;;
19329;SDS011;9799;48.214;16.388;2022-11-11T16:00:52;28.87;;;20.43;;
19329;SDS011;9799;48.214;16.388;2022-11-11T16:04:16;32.20;;;20.30;;
19329;SDS011;9799;48.214;16.388;2022-11-11T16:07:40;36.33;;;24.47;;
19329;SDS011;9799;48.214;16.388;2022-11-11T16:11:04;30.03;;;19.30;;
19329;SDS011;9799;48.214;16.388;2022-11-11T16:14:27;31.83;;;17.40;;
19329;SDS011;9799;48.214;16.388;2022-11-11T16:17:51;24.50;;;16.37;;
19329;SDS011;9799;48.214;16.388;2022-11-11T16:21:16;25.67;;;16.30;;
19329;SDS011;9799;48.214;16.388;2022-11-11T16:24:40;23.60;;;17.17;;
19329;SDS011;9799;48.214;16.388;2022-11-11T16:28:05;28.57;;;17.57;;
19329;SDS011;9799;48.214;16.388;2022-11-11T16:31:36;22.37;;;18.37;;
19329;SDS011;9799;48.214;16.388;2022-11-11T16:34:58;27.53;;;19.80;;
19329;SDS011;9799;48.214;16.388;2022-11-11T16:38:28;28.83;;;19.63;;
19329;SDS011;9799;48.214;16.388;2022-11-11T16:41:51;29.67;;;21.37;;
19329;SDS011;9799;48.214;16.388;2022-11-11T16:45:18;40.60;;;24.10;;
19329;SDS011;9799;48.214;16.388;2022-11-11T16:48:45;32.73;;;23.33;;
19329;SDS011;9799;48.214;16.388;2022-11-11T16:52:09;36.30;;;23.00;;
19329;SDS011;9799;48.214;16.388;2022-11-11T16:55:34;34.90;;;20.83;;
19329;SDS011;9799;48.214;16.388;2022-11-11T16:58:59;27.97;;;20.93;;
19329;SDS011;9799;48.214;16.388;2022-11-11T17:02:27;33.83;;;21.57;;
19329;SDS011;9799;48.214;16.388;2022-11-11T17:05:50;27.97;;;20.93;;
19329;SDS011;9799;48.214;16.388;2022-11-11T17:09:29;36.13;;;26.77;;
19329;SDS011;9799;48.214;16.388;2022-11-11T17:12:56;39.80;;;27.23;;
19329;SDS011;9799;48.214;16.388;2022-11-11T17:16:18;35.27;;;23.53;;
19329;SDS011;9799;48.214;16.388;2022-11-11T17:19:41;33.60;;;22.63;;
19329;SDS011;9799;48.214;16.388;2022-11-11T17:23:03;33.30;;;23.40;;
19329;SDS011;9799;48.214;16.388;2022-11-11T17:26:26;38.47;;;22.57;;
19329;SDS011;9799;48.214;16.388;2022-11-11T17:29:47;35.27;;;23.33;;
19329;SDS011;9799;48.214;16.388;2022-11-11T17:33:10;37.20;;;26.80;;
19329;SDS011;9799;48.214;16.388;2022-11-11T17:36:36;39.63;;;29.03;;
19329;SDS011;9799;48.214;16.388;2022-11-11T17:39:57;46.80;;;26.57;;
19329;SDS011;9799;48.214;16.388;2022-11-11T17:43:19;38.30;;;23.37;;
19329;SDS011;9799;48.214;16.388;2022-11-11T17:46:40;37.90;;;25.63;;
19329;SDS011;9799;48.214;16.388;2022-11-11T17:50:02;42.63;;;26.97;;
19329;SDS011;9799;48.214;16.388;2022-11-11T17:53:25;42.07;;;28.20;;
19329;SDS011;9799;48.214;16.388;2022-11-11T17:56:48;44.27;;;30.50;;
19329;SDS011;9799;48.214;16.388;2022-11-11T18:00:10;50.20;;;29.23;;
19329;SDS011;9799;48.214;16.388;2022-11-11T18:03:33;35.47;;;26.73;;
19329;SDS011;9799;48.214;16.388;2022-11-11T18:06:55;46.73;;;26.73;;
19329;SDS011;9799;48.214;16.388;2022-11-11T18:10:19;44.13;;;27.67;;
19329;SDS011;9799;48.214;16.388;2022-11-11T18:13:40;43.03;;;28.27;;
19329;SDS011;9799;48.214;16.388;2022-11-11T18:17:03;40.03;;;28.37;;
19329;SDS011;9799;48.214;16.388;2022-11-11T18:20:25;42.57;;;27.73;;
19329;SDS011;9799;48.214;16.388;2022-11-11T18:23:48;38.67;;;27.13;;
19329;SDS011;9799;48.214;16.388;2022-11-11T18:27:11;43.43;;;29.00;;
19329;SDS011;9799;48.214;16.388;2022-11-11T18:33:55;44.37;;;31.30;;
19329;SDS011;9799;48.214;16.388;2022-11-11T18:37:18;42.40;;;29.87;;
19329;SDS011;9799;48.214;16.388;2022-11-11T18:40:40;44.30;;;28.63;;
19329;SDS011;9799;48.214;16.388;2022-11-11T18:44:03;46.53;;;28.00;;
19329;SDS011;9799;48.214;16.388;2022-11-11T18:47:25;39.73;;;27.80;;
19329;SDS011;9799;48.214;16.388;2022-11-11T18:50:51;36.10;;;27.83;;
19329;SDS011;9799;48.214;16.388;2022-11-11T18:54:13;35.57;;;27.20;;
19329;SDS011;9799;48.214;16.388;2022-11-11T18:57:35;32.53;;;23.00;;
19329;SDS011;9799;48.214;16.388;2022-11-11T19:01:05;29.73;;;23.40;;
19329;SDS011;9799;48.214;16.388;2022-11-11T19:04:29;36.90;;;30.13;;
19329;SDS011;9799;48.214;16.388;2022-11-11T19:07:51;35.73;;;26.97;;
19329;SDS011;9799;48.214;16.388;2022-11-11T19:11:12;36.97;;;23.87;;
19329;SDS011;9799;48.214;16.388;2022-11-11T19:14:34;33.30;;;22.90;;
19329;SDS011;9799;48.214;16.388;2022-11-11T19:17:58;29.03;;;21.13;;
19329;SDS011;9799;48.214;16.388;2022-11-11T19:21:20;30.20;;;19.53;;
19329;SDS011;9799;48.214;16.388;2022-11-11T19:24:43;29.33;;;18.20;;
19329;SDS011;9799;48.214;16.388;2022-11-11T19:28:05;27.40;;;17.50;;
19329;SDS011;9799;48.214;16.388;2022-11-11T19:31:28;31.73;;;21.53;;
19329;SDS011;9799;48.214;16.388;2022-11-11T19:34:52;27.87;;;21.07;;
19329;SDS011;9799;48.214;16.388;2022-11-11T19:38:14;29.77;;;21.50;;
19329;SDS011;9799;48.214;16.388;2022-11-11T19:41:36;31.23;;;21.47;;
19329;SDS011;9799;48.214;16.388;2022-11-11T19:44:58;30.93;;;22.13;;
19329;SDS011;9799;48.214;16.388;2022-11-11T19:48:21;27.97;;;18.73;;
19329;SDS011;9799;48.214;16.388;2022-11-11T19:51:45;21.70;;;16.63;;
19329;SDS011;9799;48.214;16.388;2022-11-11T19:55:06;24.17;;;18.17;;
19329;SDS011;9799;48.214;16.388;2022-11-11T19:58:35;24.73;;;18.80;;
19329;SDS011;9799;48.214;16.388;2022-11-11T20:01:58;22.07;;;17.57;;
19329;SDS011;9799;48.214;16.388;2022-11-11T20:05:20;25.00;;;17.57;;
19329;SDS011;9799;48.214;16.388;2022-11-11T20:08:43;30.13;;;19.27;;
19329;SDS011;9799;48.214;16.388;2022-11-11T20:12:06;33.10;;;21.17;;
19329;SDS011;9799;48.214;16.388;2022-11-11T20:15:28;27.40;;;19.30;;
19329;SDS011;9799;48.214;16.388;2022-11-11T20:18:55;26.67;;;18.53;;
19329;SDS011;9799;48.214;16.388;2022-11-11T20:22:17;29.53;;;20.43;;
19329;SDS011;9799;48.214;16.388;2022-11-11T20:25:40;30.40;;;20.33;;
19329;SDS011;9799;48.214;16.388;2022-11-11T20:29:02;31.47;;;21.80;;
19329;SDS011;9799;48.214;16.388;2022-11-11T20:32:24;26.63;;;19.00;;